sensor_id;sensor_type;location;lat;lon;timestamp;pressure;altitude;pressure_sealevel;temperature;humidity
58064;BME280;43851;55.856;37.186;2022-07-06T00:01:48;99286.91;;;17.26;100.00
58064;BME280;43851;55.856;37.186;2022-07-06T00:04:17;99287.41;;;17.23;100.00
58064;BME280;43851;55.856;37.186;2022-07-06T00:06:43;99290.34;;;17.22;100.00
58064;BME280;43851;55.856;37.186;2022-07-06T00:09:09;99282.53;;;17.20;100.00
58064;BME280;43851;55.856;37.186;2022-07-06T00:11:35;99288.09;;;17.13;100.00
58064;BME280;43851;55.856;37.186;2022-07-06T00:14:01;99282.34;;;17.05;100.00
58064;BME280;43851;55.856;37.186;2022-07-06T00:16:27;99285.81;;;17.05;100.00
58064;BME280;43851;55.856;37.186;2022-07-06T00:18:52;99284.22;;;17.04;100.00
58064;BME280;43851;55.856;37.186;2022-07-06T00:21:18;99261.91;;;16.99;100.00
58064;BME280;43851;55.856;37.186;2022-07-06T00:23:44;99272.13;;;17.02;100.00
58064;BME280;43851;55.856;37.186;2022-07-06T00:26:10;99268.94;;;17.05;100.00
58064;BME280;43851;55.856;37.186;2022-07-06T00:28:36;99259.38;;;17.09;100.00
58064;BME280;43851;55.856;37.186;2022-07-06T00:31:02;99255.81;;;17.03;100.00
58064;BME280;43851;55.856;37.186;2022-07-06T00:33:28;99258.72;;;17.02;100.00
58064;BME280;43851;55.856;37.186;2022-07-06T00:35:54;99257.94;;;17.01;100.00
58064;BME280;43851;55.856;37.186;2022-07-06T00:38:20;99262.34;;;16.90;100.00
58064;BME280;43851;55.856;37.186;2022-07-06T00:40:46;99256.97;;;16.73;100.00
58064;BME280;43851;55.856;37.186;2022-07-06T00:43:12;99253.63;;;16.83;100.00
58064;BME280;43851;55.856;37.186;2022-07-06T00:45:38;99266.63;;;16.91;100.00
58064;BME280;43851;55.856;37.186;2022-07-06T00:48:04;99269.69;;;17.00;100.00
58064;BME280;43851;55.856;37.186;2022-07-06T00:50:30;99262.41;;;16.95;100.00
58064;BME280;43851;55.856;37.186;2022-07-06T00:53:00;99284.31;;;16.92;100.00
58064;BME280;43851;55.856;37.186;2022-07-06T00:55:31;99252.03;;;16.82;100.00
58064;BME280;43851;55.856;37.186;2022-07-06T00:57:58;99268.19;;;16.87;100.00
58064;BME280;43851;55.856;37.186;2022-07-06T01:00:27;99285.19;;;16.81;100.00
58064;BME280;43851;55.856;37.186;2022-07-06T01:02:53;99282.38;;;16.88;100.00
58064;BME280;43851;55.856;37.186;2022-07-06T01:05:19;99275.97;;;16.89;100.00
58064;BME280;43851;55.856;37.186;2022-07-06T01:07:47;99284.25;;;16.87;100.00
58064;BME280;43851;55.856;37.186;2022-07-06T01:10:15;99285.34;;;16.91;100.00
58064;BME280;43851;55.856;37.186;2022-07-06T01:12:43;99278.09;;;16.87;100.00
58064;BME280;43851;55.856;37.186;2022-07-06T01:15:13;99283.75;;;16.90;100.00
58064;BME280;43851;55.856;37.186;2022-07-06T01:17:40;99284.72;;;17.01;100.00
58064;BME280;43851;55.856;37.186;2022-07-06T01:20:17;99287.88;;;16.98;100.00
58064;BME280;43851;55.856;37.186;2022-07-06T01:22:45;99285.69;;;16.95;100.00
58064;BME280;43851;55.856;37.186;2022-07-06T01:25:12;99284.72;;;17.01;100.00
58064;BME280;43851;55.856;37.186;2022-07-06T01:27:39;99286.66;;;17.06;100.00
58064;BME280;43851;55.856;37.186;2022-07-06T01:30:11;99284.53;;;17.08;100.00
58064;BME280;43851;55.856;37.186;2022-07-06T01:32:38;99287.00;;;17.14;100.00
58064;BME280;43851;55.856;37.186;2022-07-06T01:35:09;99290.53;;;17.15;100.00
58064;BME280;43851;55.856;37.186;2022-07-06T01:37:36;99285.41;;;17.13;100.00
58064;BME280;43851;55.856;37.186;2022-07-06T01:40:04;99296.44;;;17.17;100.00
58064;BME280;43851;55.856;37.186;2022-07-06T01:42:31;99293.25;;;17.20;100.00
58064;BME280;43851;55.856;37.186;2022-07-06T01:44:57;99296.19;;;17.19;100.00
58064;BME280;43851;55.856;37.186;2022-07-06T01:47:23;99304.72;;;17.16;100.00
58064;BME280;43851;55.856;37.186;2022-07-06T01:49:51;99295.25;;;17.08;100.00
58064;BME280;43851;55.856;37.186;2022-07-06T01:52:18;99304.91;;;17.09;100.00
58064;BME280;43851;55.856;37.186;2022-07-06T01:54:44;99304.00;;;17.03;100.00
58064;BME280;43851;55.856;37.186;2022-07-06T01:57:10;99299.47;;;17.04;100.00
58064;BME280;43851;55.856;37.186;2022-07-06T01:59:37;99306.25;;;17.11;100.00
58064;BME280;43851;55.856;37.186;2022-07-06T02:02:03;99305.72;;;17.09;100.00
58064;BME280;43851;55.856;37.186;2022-07-06T02:04:29;99307.00;;;17.07;100.00
58064;BME280;43851;55.856;37.186;2022-07-06T02:06:55;99289.00;;;17.02;100.00
58064;BME280;43851;55.856;37.186;2022-07-06T02:09:21;99291.91;;;17.01;100.00
58064;BME280;43851;55.856;37.186;2022-07-06T02:11:47;99301.00;;;17.17;100.00
58064;BME280;43851;55.856;37.186;2022-07-06T02:14:14;99305.41;;;17.28;100.00
58064;BME280;43851;55.856;37.186;2022-07-06T02:16:40;99305.78;;;17.37;100.00
58064;BME280;43851;55.856;37.186;2022-07-06T02:19:06;99314.22;;;17.45;100.00
58064;BME280;43851;55.856;37.186;2022-07-06T02:21:32;99303.84;;;17.54;100.00
58064;BME280;43851;55.856;37.186;2022-07-06T02:23:58;99308.38;;;18.25;99.08
58064;BME280;43851;55.856;37.186;2022-07-06T02:26:24;99317.53;;;18.99;95.07
58064;BME280;43851;55.856;37.186;2022-07-06T02:28:50;99305.41;;;19.50;90.15
58064;BME280;43851;55.856;37.186;2022-07-06T02:31:16;99304.25;;;20.24;86.94
58064;BME280;43851;55.856;37.186;2022-07-06T02:33:45;99301.84;;;20.74;83.08
58064;BME280;43851;55.856;37.186;2022-07-06T02:36:18;99319.41;;;21.47;79.57
58064;BME280;43851;55.856;37.186;2022-07-06T02:38:44;99306.25;;;21.95;76.02
58064;BME280;43851;55.856;37.186;2022-07-06T02:41:10;99316.88;;;22.56;73.89
58064;BME280;43851;55.856;37.186;2022-07-06T02:43:54;99312.41;;;22.75;71.61
58064;BME280;43851;55.856;37.186;2022-07-06T02:46:25;99311.06;;;23.50;69.08
58064;BME280;43851;55.856;37.186;2022-07-06T02:48:51;99302.03;;;23.98;67.33
58064;BME280;43851;55.856;37.186;2022-07-06T02:51:17;99304.53;;;23.94;66.11
58064;BME280;43851;55.856;37.186;2022-07-06T02:53:53;99306.66;;;24.17;65.00
58064;BME280;43851;55.856;37.186;2022-07-06T02:56:28;99280.91;;;24.66;63.49
58064;BME280;43851;55.856;37.186;2022-07-06T02:59:00;99259.75;;;25.24;61.88
58064;BME280;43851;55.856;37.186;2022-07-06T03:01:33;99247.25;;;25.64;59.49
58064;BME280;43851;55.856;37.186;2022-07-06T03:04:05;99247.28;;;26.09;57.91
58064;BME280;43851;55.856;37.186;2022-07-06T03:06:35;99260.75;;;26.15;58.20
58064;BME280;43851;55.856;37.186;2022-07-06T03:09:04;99273.72;;;26.18;57.69
58064;BME280;43851;55.856;37.186;2022-07-06T03:11:37;99303.88;;;26.84;56.52
58064;BME280;43851;55.856;37.186;2022-07-06T03:14:04;99299.19;;;27.16;55.91
58064;BME280;43851;55.856;37.186;2022-07-06T03:16:32;99299.28;;;27.51;53.98
58064;BME280;43851;55.856;37.186;2022-07-06T03:18:58;99311.72;;;28.10;53.64
58064;BME280;43851;55.856;37.186;2022-07-06T03:21:24;99302.91;;;28.86;51.02
58064;BME280;43851;55.856;37.186;2022-07-06T03:23:51;99317.63;;;29.03;50.51
58064;BME280;43851;55.856;37.186;2022-07-06T03:26:17;99305.56;;;29.42;50.62
58064;BME280;43851;55.856;37.186;2022-07-06T03:28:44;99310.56;;;29.61;49.88
58064;BME280;43851;55.856;37.186;2022-07-06T03:31:10;99313.88;;;29.46;49.73
58064;BME280;43851;55.856;37.186;2022-07-06T03:33:36;99315.06;;;30.08;48.76
58064;BME280;43851;55.856;37.186;2022-07-06T03:36:03;99317.19;;;30.23;48.97
58064;BME280;43851;55.856;37.186;2022-07-06T03:38:31;99300.91;;;30.73;48.11
58064;BME280;43851;55.856;37.186;2022-07-06T03:40:58;99330.44;;;31.25;47.02
58064;BME280;43851;55.856;37.186;2022-07-06T03:43:24;99313.41;;;31.20;46.54
58064;BME280;43851;55.856;37.186;2022-07-06T03:45:51;99308.72;;;30.95;47.05
58064;BME280;43851;55.856;37.186;2022-07-06T03:48:18;99319.66;;;31.45;46.33
58064;BME280;43851;55.856;37.186;2022-07-06T03:50:44;99328.56;;;31.79;45.11
58064;BME280;43851;55.856;37.186;2022-07-06T03:53:10;99326.00;;;32.27;44.36
58064;BME280;43851;55.856;37.186;2022-07-06T03:55:37;99329.69;;;31.78;44.39
58064;BME280;43851;55.856;37.186;2022-07-06T03:58:06;99326.31;;;31.97;44.87
58064;BME280;43851;55.856;37.186;2022-07-06T04:00:35;99322.78;;;32.09;45.15
58064;BME280;43851;55.856;37.186;2022-07-06T04:03:04;99327.53;;;32.68;43.50
58064;BME280;43851;55.856;37.186;2022-07-06T04:05:35;99298.66;;;33.06;42.19
58064;BME280;43851;55.856;37.186;2022-07-06T04:08:01;99315.13;;;33.38;41.36
58064;BME280;43851;55.856;37.186;2022-07-06T04:10:42;99310.00;;;33.72;41.37
58064;BME280;43851;55.856;37.186;2022-07-06T04:13:08;99313.38;;;34.44;39.37
58064;BME280;43851;55.856;37.186;2022-07-06T04:15:36;99299.16;;;34.84;38.66
58064;BME280;43851;55.856;37.186;2022-07-06T04:18:02;99316.41;;;35.04;38.17
58064;BME280;43851;55.856;37.186;2022-07-06T04:20:32;99301.38;;;34.75;38.57
58064;BME280;43851;55.856;37.186;2022-07-06T04:23:00;99295.97;;;35.32;37.78
58064;BME280;43851;55.856;37.186;2022-07-06T04:25:26;99303.25;;;35.44;37.16
58064;BME280;43851;55.856;37.186;2022-07-06T04:27:56;99307.66;;;34.99;38.42
58064;BME280;43851;55.856;37.186;2022-07-06T04:30:25;99301.53;;;35.09;38.06
58064;BME280;43851;55.856;37.186;2022-07-06T04:33:00;99297.97;;;34.20;39.52
58064;BME280;43851;55.856;37.186;2022-07-06T04:35:28;99304.91;;;34.99;38.27
58064;BME280;43851;55.856;37.186;2022-07-06T04:37:55;99299.53;;;35.33;37.56
58064;BME280;43851;55.856;37.186;2022-07-06T04:40:22;99299.66;;;35.70;37.08
58064;BME280;43851;55.856;37.186;2022-07-06T04:42:52;99298.75;;;34.82;38.54
58064;BME280;43851;55.856;37.186;2022-07-06T04:45:22;99303.78;;;33.95;40.05
58064;BME280;43851;55.856;37.186;2022-07-06T04:47:51;99299.13;;;34.38;40.03
58064;BME280;43851;55.856;37.186;2022-07-06T04:50:18;99293.38;;;34.47;39.60
58064;BME280;43851;55.856;37.186;2022-07-06T04:52:45;99295.44;;;34.11;39.79
58064;BME280;43851;55.856;37.186;2022-07-06T04:55:12;99294.81;;;35.64;37.61
58064;BME280;43851;55.856;37.186;2022-07-06T04:57:41;99297.41;;;36.13;36.32
58064;BME280;43851;55.856;37.186;2022-07-06T05:00:08;99293.81;;;35.45;37.76
58064;BME280;43851;55.856;37.186;2022-07-06T05:02:35;99299.44;;;35.56;37.77
58064;BME280;43851;55.856;37.186;2022-07-06T05:05:03;99292.28;;;36.12;36.67
58064;BME280;43851;55.856;37.186;2022-07-06T05:07:30;99299.38;;;35.49;37.20
58064;BME280;43851;55.856;37.186;2022-07-06T05:09:59;99278.72;;;36.00;36.19
58064;BME280;43851;55.856;37.186;2022-07-06T05:12:26;99287.34;;;35.94;36.27
58064;BME280;43851;55.856;37.186;2022-07-06T05:14:52;99281.94;;;36.02;35.69
58064;BME280;43851;55.856;37.186;2022-07-06T05:17:24;99280.31;;;36.35;35.68
58064;BME280;43851;55.856;37.186;2022-07-06T05:19:50;99277.22;;;36.88;34.62
58064;BME280;43851;55.856;37.186;2022-07-06T05:22:16;99290.16;;;37.25;33.60
58064;BME280;43851;55.856;37.186;2022-07-06T05:24:43;99266.63;;;37.53;33.76
58064;BME280;43851;55.856;37.186;2022-07-06T05:27:09;99267.97;;;36.66;33.62
58064;BME280;43851;55.856;37.186;2022-07-06T05:29:36;99278.59;;;36.64;33.97
58064;BME280;43851;55.856;37.186;2022-07-06T05:32:02;99286.81;;;36.98;33.02
58064;BME280;43851;55.856;37.186;2022-07-06T05:34:29;99273.56;;;37.22;33.36
58064;BME280;43851;55.856;37.186;2022-07-06T05:36:57;99275.91;;;35.92;34.65
58064;BME280;43851;55.856;37.186;2022-07-06T05:39:23;99286.25;;;36.78;33.08
58064;BME280;43851;55.856;37.186;2022-07-06T05:42:18;99285.22;;;36.52;33.49
58064;BME280;43851;55.856;37.186;2022-07-06T05:44:45;99287.75;;;36.27;34.59
58064;BME280;43851;55.856;37.186;2022-07-06T05:47:12;99282.47;;;35.81;35.41
58064;BME280;43851;55.856;37.186;2022-07-06T05:50:05;99285.81;;;35.67;35.59
58064;BME280;43851;55.856;37.186;2022-07-06T05:52:54;99282.75;;;34.92;36.99
58064;BME280;43851;55.856;37.186;2022-07-06T05:55:22;99280.41;;;34.47;37.79
58064;BME280;43851;55.856;37.186;2022-07-06T05:57:59;99258.59;;;33.57;39.11
58064;BME280;43851;55.856;37.186;2022-07-06T06:00:29;99272.81;;;33.43;39.51
58064;BME280;43851;55.856;37.186;2022-07-06T06:03:01;99270.88;;;32.92;39.98
58064;BME280;43851;55.856;37.186;2022-07-06T06:05:28;99268.53;;;32.62;41.48
58064;BME280;43851;55.856;37.186;2022-07-06T06:08:01;99278.06;;;31.27;45.19
58064;BME280;43851;55.856;37.186;2022-07-06T06:10:30;99272.81;;;30.97;45.95
58064;BME280;43851;55.856;37.186;2022-07-06T06:13:00;99272.66;;;30.35;47.34
58064;BME280;43851;55.856;37.186;2022-07-06T06:15:26;99264.84;;;30.13;48.76
58064;BME280;43851;55.856;37.186;2022-07-06T06:17:52;99264.53;;;29.72;50.08
58064;BME280;43851;55.856;37.186;2022-07-06T06:20:18;99266.56;;;29.84;48.93
58064;BME280;43851;55.856;37.186;2022-07-06T06:23:02;99254.09;;;29.95;48.53
58064;BME280;43851;55.856;37.186;2022-07-06T06:25:33;99271.59;;;29.94;48.38
58064;BME280;43851;55.856;37.186;2022-07-06T06:27:59;99261.28;;;29.37;49.99
58064;BME280;43851;55.856;37.186;2022-07-06T06:30:25;99258.81;;;29.65;49.64
58064;BME280;43851;55.856;37.186;2022-07-06T06:33:03;99251.53;;;29.69;50.07
58064;BME280;43851;55.856;37.186;2022-07-06T06:35:29;99264.16;;;29.82;50.06
58064;BME280;43851;55.856;37.186;2022-07-06T06:37:55;99257.59;;;29.32;50.76
58064;BME280;43851;55.856;37.186;2022-07-06T06:40:21;99260.81;;;29.56;50.87
58064;BME280;43851;55.856;37.186;2022-07-06T06:42:48;99253.06;;;29.58;51.51
58064;BME280;43851;55.856;37.186;2022-07-06T06:45:13;99261.44;;;29.31;52.38
58064;BME280;43851;55.856;37.186;2022-07-06T06:47:39;99263.94;;;29.45;51.79
58064;BME280;43851;55.856;37.186;2022-07-06T06:50:05;99259.88;;;29.51;51.33
58064;BME280;43851;55.856;37.186;2022-07-06T06:52:31;99256.59;;;29.58;51.25
58064;BME280;43851;55.856;37.186;2022-07-06T06:54:57;99260.19;;;29.50;51.61
58064;BME280;43851;55.856;37.186;2022-07-06T06:57:23;99265.72;;;29.41;51.39
58064;BME280;43851;55.856;37.186;2022-07-06T06:59:49;99261.09;;;29.33;51.91
58064;BME280;43851;55.856;37.186;2022-07-06T07:02:15;99269.25;;;29.42;51.60
58064;BME280;43851;55.856;37.186;2022-07-06T07:04:40;99261.28;;;29.37;50.96
58064;BME280;43851;55.856;37.186;2022-07-06T07:07:06;99260.56;;;29.40;51.24
58064;BME280;43851;55.856;37.186;2022-07-06T07:09:32;99260.22;;;29.20;52.13
58064;BME280;43851;55.856;37.186;2022-07-06T07:11:58;99262.69;;;29.04;51.52
58064;BME280;43851;55.856;37.186;2022-07-06T07:14:23;99251.97;;;28.99;51.09
58064;BME280;43851;55.856;37.186;2022-07-06T07:16:49;99260.75;;;28.75;52.07
58064;BME280;43851;55.856;37.186;2022-07-06T07:19:15;99256.09;;;28.75;53.42
58064;BME280;43851;55.856;37.186;2022-07-06T07:21:41;99241.28;;;28.85;52.53
58064;BME280;43851;55.856;37.186;2022-07-06T07:24:07;99258.84;;;28.75;52.63
58064;BME280;43851;55.856;37.186;2022-07-06T07:26:33;99256.69;;;28.81;52.83
58064;BME280;43851;55.856;37.186;2022-07-06T07:28:58;99255.44;;;28.78;52.45
58064;BME280;43851;55.856;37.186;2022-07-06T07:31:24;99253.94;;;28.90;52.18
58064;BME280;43851;55.856;37.186;2022-07-06T07:33:50;99260.06;;;29.16;51.42
58064;BME280;43851;55.856;37.186;2022-07-06T07:36:16;99249.94;;;29.17;51.18
58064;BME280;43851;55.856;37.186;2022-07-06T07:38:42;99255.59;;;29.12;51.41
58064;BME280;43851;55.856;37.186;2022-07-06T07:41:07;99250.41;;;28.89;52.06
58064;BME280;43851;55.856;37.186;2022-07-06T07:43:33;99249.75;;;28.92;51.74
58064;BME280;43851;55.856;37.186;2022-07-06T07:45:59;99248.91;;;29.01;52.01
58064;BME280;43851;55.856;37.186;2022-07-06T07:48:25;99257.38;;;29.08;51.47
58064;BME280;43851;55.856;37.186;2022-07-06T07:50:51;99254.91;;;29.24;51.44
58064;BME280;43851;55.856;37.186;2022-07-06T07:53:16;99258.88;;;29.56;50.59
58064;BME280;43851;55.856;37.186;2022-07-06T07:55:42;99255.22;;;29.73;50.19
58064;BME280;43851;55.856;37.186;2022-07-06T07:58:11;99257.41;;;29.59;51.06
58064;BME280;43851;55.856;37.186;2022-07-06T08:00:37;99254.53;;;29.76;48.65
58064;BME280;43851;55.856;37.186;2022-07-06T08:03:03;99248.69;;;29.86;49.31
58064;BME280;43851;55.856;37.186;2022-07-06T08:05:29;99255.34;;;29.77;48.56
58064;BME280;43851;55.856;37.186;2022-07-06T08:07:55;99255.50;;;29.80;48.53
58064;BME280;43851;55.856;37.186;2022-07-06T08:10:21;99248.91;;;29.81;48.83
58064;BME280;43851;55.856;37.186;2022-07-06T08:12:47;99251.63;;;29.81;47.99
58064;BME280;43851;55.856;37.186;2022-07-06T08:15:12;99230.13;;;29.71;48.68
58064;BME280;43851;55.856;37.186;2022-07-06T08:17:38;99251.28;;;30.16;47.79
58064;BME280;43851;55.856;37.186;2022-07-06T08:20:05;99246.56;;;30.38;47.19
58064;BME280;43851;55.856;37.186;2022-07-06T08:22:32;99254.06;;;30.29;46.40
58064;BME280;43851;55.856;37.186;2022-07-06T08:25:00;99251.63;;;30.15;45.68
58064;BME280;43851;55.856;37.186;2022-07-06T08:27:26;99247.59;;;30.33;45.61
58064;BME280;43851;55.856;37.186;2022-07-06T08:29:58;99247.47;;;30.30;45.70
58064;BME280;43851;55.856;37.186;2022-07-06T08:32:26;99257.66;;;30.41;45.80
58064;BME280;43851;55.856;37.186;2022-07-06T08:34:52;99242.53;;;30.56;45.39
58064;BME280;43851;55.856;37.186;2022-07-06T08:37:18;99245.03;;;30.49;46.02
58064;BME280;43851;55.856;37.186;2022-07-06T08:39:45;99235.88;;;30.33;47.23
58064;BME280;43851;55.856;37.186;2022-07-06T08:42:12;99250.72;;;30.44;47.16
58064;BME280;43851;55.856;37.186;2022-07-06T08:44:40;99237.75;;;30.53;46.32
58064;BME280;43851;55.856;37.186;2022-07-06T08:47:06;99224.09;;;30.32;46.40
58064;BME280;43851;55.856;37.186;2022-07-06T08:49:37;99209.47;;;30.49;45.85
58064;BME280;43851;55.856;37.186;2022-07-06T08:52:04;99240.59;;;30.69;45.03
58064;BME280;43851;55.856;37.186;2022-07-06T08:54:30;99228.41;;;30.67;45.35
58064;BME280;43851;55.856;37.186;2022-07-06T08:56:55;99240.13;;;30.80;44.96
58064;BME280;43851;55.856;37.186;2022-07-06T08:59:21;99242.13;;;31.04;45.07
58064;BME280;43851;55.856;37.186;2022-07-06T09:01:47;99233.44;;;30.89;45.51
58064;BME280;43851;55.856;37.186;2022-07-06T09:04:18;99235.59;;;30.84;44.86
58064;BME280;43851;55.856;37.186;2022-07-06T09:06:51;99240.63;;;30.82;45.31
58064;BME280;43851;55.856;37.186;2022-07-06T09:09:21;99237.75;;;30.78;45.58
58064;BME280;43851;55.856;37.186;2022-07-06T09:11:49;99226.09;;;30.44;46.17
58064;BME280;43851;55.856;37.186;2022-07-06T09:14:15;99230.41;;;30.33;46.70
58064;BME280;43851;55.856;37.186;2022-07-06T09:16:41;99236.72;;;30.24;46.50
58064;BME280;43851;55.856;37.186;2022-07-06T09:19:10;99235.03;;;30.20;46.99
58064;BME280;43851;55.856;37.186;2022-07-06T09:21:37;99231.22;;;30.00;46.39
58064;BME280;43851;55.856;37.186;2022-07-06T09:24:07;99227.72;;;30.45;46.22
58064;BME280;43851;55.856;37.186;2022-07-06T09:26:34;99219.16;;;30.47;46.53
58064;BME280;43851;55.856;37.186;2022-07-06T09:29:01;99217.44;;;30.54;46.51
58064;BME280;43851;55.856;37.186;2022-07-06T09:31:33;99228.19;;;30.59;46.53
58064;BME280;43851;55.856;37.186;2022-07-06T09:34:15;99229.09;;;30.76;45.51
58064;BME280;43851;55.856;37.186;2022-07-06T09:36:48;99197.41;;;30.50;45.62
58064;BME280;43851;55.856;37.186;2022-07-06T09:39:25;99227.97;;;30.89;45.22
58064;BME280;43851;55.856;37.186;2022-07-06T09:41:56;99233.53;;;30.81;44.80
58064;BME280;43851;55.856;37.186;2022-07-06T09:44:23;99223.59;;;30.64;45.17
58064;BME280;43851;55.856;37.186;2022-07-06T09:46:51;99225.31;;;30.56;45.80
58064;BME280;43851;55.856;37.186;2022-07-06T09:49:21;99217.44;;;30.67;45.34
58064;BME280;43851;55.856;37.186;2022-07-06T09:51:52;99209.03;;;30.47;45.78
58064;BME280;43851;55.856;37.186;2022-07-06T09:54:18;99207.31;;;30.43;45.87
58064;BME280;43851;55.856;37.186;2022-07-06T09:56:46;99213.00;;;30.74;44.72
58064;BME280;43851;55.856;37.186;2022-07-06T09:59:24;99213.56;;;30.55;45.05
58064;BME280;43851;55.856;37.186;2022-07-06T10:01:53;99212.53;;;30.48;44.96
58064;BME280;43851;55.856;37.186;2022-07-06T10:04:23;99202.97;;;30.54;44.55
58064;BME280;43851;55.856;37.186;2022-07-06T10:06:49;99206.06;;;30.65;44.20
58064;BME280;43851;55.856;37.186;2022-07-06T10:09:16;99207.53;;;30.74;43.55
58064;BME280;43851;55.856;37.186;2022-07-06T10:11:55;99215.41;;;30.76;42.47
58064;BME280;43851;55.856;37.186;2022-07-06T10:14:25;99209.50;;;30.74;43.53
58064;BME280;43851;55.856;37.186;2022-07-06T10:16:56;99202.03;;;30.50;44.11
58064;BME280;43851;55.856;37.186;2022-07-06T10:19:23;99204.25;;;30.56;43.56
58064;BME280;43851;55.856;37.186;2022-07-06T10:21:50;99205.59;;;30.50;44.54
58064;BME280;43851;55.856;37.186;2022-07-06T10:24:19;99202.41;;;30.48;45.02
58064;BME280;43851;55.856;37.186;2022-07-06T10:26:45;99197.63;;;30.70;44.87
58064;BME280;43851;55.856;37.186;2022-07-06T10:29:11;99193.06;;;30.74;44.57
58064;BME280;43851;55.856;37.186;2022-07-06T10:31:40;99195.56;;;30.91;44.40
58064;BME280;43851;55.856;37.186;2022-07-06T10:34:10;99187.13;;;30.97;44.28
58064;BME280;43851;55.856;37.186;2022-07-06T10:36:40;99195.13;;;30.89;44.39
58064;BME280;43851;55.856;37.186;2022-07-06T10:39:07;99184.41;;;30.59;44.86
58064;BME280;43851;55.856;37.186;2022-07-06T10:41:51;99192.03;;;30.41;45.34
58064;BME280;43851;55.856;37.186;2022-07-06T10:44:20;99176.16;;;30.35;43.74
58064;BME280;43851;55.856;37.186;2022-07-06T10:49:17;99179.28;;;30.46;41.33
58064;BME280;43851;55.856;37.186;2022-07-06T10:51:43;99159.06;;;30.38;41.78
58064;BME280;43851;55.856;37.186;2022-07-06T10:54:10;99173.81;;;30.58;41.53
58064;BME280;43851;55.856;37.186;2022-07-06T10:56:38;99176.97;;;30.48;41.58
58064;BME280;43851;55.856;37.186;2022-07-06T11:01:38;99179.72;;;30.60;41.42
58064;BME280;43851;55.856;37.186;2022-07-06T11:04:07;99158.88;;;30.68;40.98
58064;BME280;43851;55.856;37.186;2022-07-06T11:06:45;99166.16;;;30.76;41.51
58064;BME280;43851;55.856;37.186;2022-07-06T11:09:11;99149.63;;;30.60;42.36
58064;BME280;43851;55.856;37.186;2022-07-06T11:11:40;99152.94;;;30.66;41.24
58064;BME280;43851;55.856;37.186;2022-07-06T11:14:11;99160.91;;;30.71;42.11
58064;BME280;43851;55.856;37.186;2022-07-06T11:19:21;99154.19;;;30.68;42.28
58064;BME280;43851;55.856;37.186;2022-07-06T11:21:52;99150.66;;;30.68;40.07
58064;BME280;43851;55.856;37.186;2022-07-06T11:24:29;99125.94;;;30.52;41.08
58064;BME280;43851;55.856;37.186;2022-07-06T11:26:57;99139.94;;;30.63;41.29
58064;BME280;43851;55.856;37.186;2022-07-06T11:29:25;99146.31;;;30.67;41.70
58064;BME280;43851;55.856;37.186;2022-07-06T11:31:59;99147.34;;;30.62;40.03
58064;BME280;43851;55.856;37.186;2022-07-06T11:34:31;99142.56;;;30.59;40.17
58064;BME280;43851;55.856;37.186;2022-07-06T11:37:05;99142.44;;;30.68;39.96
58064;BME280;43851;55.856;37.186;2022-07-06T11:39:34;99142.78;;;30.54;40.10
58064;BME280;43851;55.856;37.186;2022-07-06T11:42:01;99152.09;;;30.28;41.00
58064;BME280;43851;55.856;37.186;2022-07-06T11:44:30;99151.44;;;30.31;41.50
58064;BME280;43851;55.856;37.186;2022-07-06T11:46:57;99151.78;;;30.30;41.48
58064;BME280;43851;55.856;37.186;2022-07-06T11:49:25;99135.28;;;30.38;41.00
58064;BME280;43851;55.856;37.186;2022-07-06T11:51:52;99143.72;;;30.46;41.78
58064;BME280;43851;55.856;37.186;2022-07-06T11:54:20;99137.44;;;30.57;41.63
58064;BME280;43851;55.856;37.186;2022-07-06T11:56:48;99143.22;;;30.81;41.28
58064;BME280;43851;55.856;37.186;2022-07-06T11:59:16;99130.25;;;30.65;41.37
58064;BME280;43851;55.856;37.186;2022-07-06T12:01:42;99140.19;;;30.45;41.45
58064;BME280;43851;55.856;37.186;2022-07-06T12:04:10;99132.84;;;30.37;42.22
58064;BME280;43851;55.856;37.186;2022-07-06T12:06:36;99130.81;;;30.46;41.38
58064;BME280;43851;55.856;37.186;2022-07-06T12:09:03;99128.28;;;30.78;41.12
58064;BME280;43851;55.856;37.186;2022-07-06T12:13:59;99123.28;;;30.80;41.54
58064;BME280;43851;55.856;37.186;2022-07-06T12:16:31;99134.00;;;30.85;41.79
58064;BME280;43851;55.856;37.186;2022-07-06T12:18:59;99128.88;;;30.59;42.23
58064;BME280;43851;55.856;37.186;2022-07-06T12:21:24;99130.34;;;30.81;42.70
58064;BME280;43851;55.856;37.186;2022-07-06T12:23:52;99134.81;;;30.73;42.74
58064;BME280;43851;55.856;37.186;2022-07-06T12:26:20;99121.56;;;30.88;42.30
58064;BME280;43851;55.856;37.186;2022-07-06T12:29:05;99108.31;;;30.90;41.67
58064;BME280;43851;55.856;37.186;2022-07-06T12:31:38;99132.19;;;31.02;41.93
58064;BME280;43851;55.856;37.186;2022-07-06T12:34:11;99122.00;;;31.02;41.83
58064;BME280;43851;55.856;37.186;2022-07-06T12:36:58;99124.06;;;31.05;41.16
58064;BME280;43851;55.856;37.186;2022-07-06T12:39:26;99123.84;;;30.98;41.09
58064;BME280;43851;55.856;37.186;2022-07-06T12:42:00;99124.06;;;30.93;41.91
58064;BME280;43851;55.856;37.186;2022-07-06T12:44:27;99111.75;;;30.99;42.17
58064;BME280;43851;55.856;37.186;2022-07-06T12:47:07;99114.00;;;31.09;42.39
58064;BME280;43851;55.856;37.186;2022-07-06T12:49:36;99116.81;;;31.25;42.00
58064;BME280;43851;55.856;37.186;2022-07-06T12:54:43;99116.88;;;30.88;40.95
58064;BME280;43851;55.856;37.186;2022-07-06T13:02:22;99120.59;;;31.21;40.58
58064;BME280;43851;55.856;37.186;2022-07-06T13:05:07;99111.56;;;31.20;39.80
58064;BME280;43851;55.856;37.186;2022-07-06T13:07:34;99116.25;;;31.20;39.47
58064;BME280;43851;55.856;37.186;2022-07-06T13:10:06;99113.88;;;31.18;39.27
58064;BME280;43851;55.856;37.186;2022-07-06T13:12:33;99115.50;;;31.07;38.78